createdAt,value
2022-08-03T00:02:21.120Z,14.57
2022-08-03T00:04:49.788Z,15.05
2022-08-03T00:07:18.684Z,14.25
2022-08-03T00:09:48.880Z,14.80
2022-08-03T00:12:18.175Z,14.82
2022-08-03T00:14:46.964Z,14.70
2022-08-03T00:17:15.726Z,14.20
2022-08-03T00:19:44.404Z,14.32
2022-08-03T00:22:13.043Z,14.25
2022-08-03T00:24:41.815Z,14.30
2022-08-03T00:27:11.703Z,14.43
2022-08-03T00:29:59.912Z,15.65
2022-08-03T00:32:29.051Z,15.43
2022-08-03T00:34:59.089Z,14.85
2022-08-03T00:37:40.789Z,14.30
2022-08-03T00:40:13.513Z,15.18
2022-08-03T00:42:55.837Z,15.45
2022-08-03T00:45:27.581Z,15.23
2022-08-03T00:47:57.060Z,15.73
2022-08-03T00:50:28.667Z,15.32
2022-08-03T00:52:59.595Z,16.05
2022-08-03T00:55:28.964Z,16.85
2022-08-03T00:57:59.787Z,16.08
2022-08-03T01:00:29.823Z,14.20
2022-08-03T01:02:58.474Z,12.73
2022-08-03T01:05:27.159Z,12.52
2022-08-03T01:08:07.011Z,12.05
2022-08-03T01:10:50.016Z,15.60
2022-08-03T01:14:01.604Z,16.33
2022-08-03T01:16:27.965Z,16.80
2022-08-03T01:19:31.243Z,15.90
2022-08-03T01:22:19.109Z,15.55
2022-08-03T01:25:02.399Z,14.90
2022-08-03T01:27:47.740Z,15.15
2022-08-03T01:30:18.184Z,14.45
2022-08-03T01:33:00.952Z,16.60
2022-08-03T01:35:39.277Z,16.35
2022-08-03T01:38:13.288Z,16.77
2022-08-03T01:40:45.496Z,18.05
2022-08-03T01:43:58.887Z,16.90
2022-08-03T01:46:12.700Z,17.27
2022-08-03T01:48:45.908Z,15.88
2022-08-03T01:51:19.362Z,16.35
2022-08-03T01:53:51.114Z,16.85
2022-08-03T01:56:23.244Z,16.27
2022-08-03T01:58:55.292Z,16.90
2022-08-03T02:01:28.250Z,16.10
2022-08-03T02:04:20.482Z,14.60
2022-08-03T02:06:59.910Z,13.30
2022-08-03T02:09:32.654Z,16.25
2022-08-03T02:12:02.646Z,15.85
2022-08-03T02:14:32.797Z,16.20
2022-08-03T02:17:04.238Z,17.23
2022-08-03T02:19:35.869Z,17.73
2022-08-03T02:22:06.679Z,16.70
2022-08-03T02:24:35.511Z,16.60
2022-08-03T02:27:11.652Z,16.33
2022-08-03T02:29:43.532Z,16.02
2022-08-03T02:32:21.479Z,16.80
2022-08-03T02:34:55.853Z,16.25
2022-08-03T02:37:31.951Z,16.27
2022-08-03T02:40:05.544Z,16.63
2022-08-03T02:42:37.031Z,16.42
2022-08-03T02:45:13.963Z,17.17
2022-08-03T02:47:53.387Z,17.50
2022-08-03T02:50:26.274Z,16.90
2022-08-03T02:52:58.137Z,16.55
2022-08-03T02:55:28.368Z,16.05
2022-08-03T02:58:01.445Z,16.65
2022-08-03T03:00:32.892Z,17.02
2022-08-03T03:03:05.378Z,17.65
2022-08-03T03:05:52.835Z,16.08
2022-08-03T03:08:28.929Z,17.35
2022-08-03T03:11:00.500Z,16.20
2022-08-03T03:13:31.380Z,16.17
2022-08-03T03:16:04.286Z,16.50
2022-08-03T03:18:35.815Z,17.15
2022-08-03T03:21:06.667Z,17.52
2022-08-03T03:23:39.483Z,16.67
2022-08-03T03:26:09.238Z,15.75
2022-08-03T03:28:38.596Z,14.88
2022-08-03T03:31:09.109Z,15.93
2022-08-03T03:33:40.477Z,17.05
2022-08-03T03:36:09.570Z,16.17
2022-08-03T03:38:38.581Z,16.80
2022-08-03T03:41:07.621Z,16.90
2022-08-03T03:43:36.607Z,17.05
2022-08-03T03:46:06.110Z,15.65
2022-08-03T03:48:35.379Z,16.35
2022-08-03T03:51:07.286Z,15.85
2022-08-03T03:53:36.733Z,13.18
2022-08-03T03:56:05.844Z,11.50
2022-08-03T03:58:34.586Z,12.50
2022-08-03T04:01:03.410Z,12.32
2022-08-03T04:03:32.102Z,13.25
2022-08-03T04:06:18.225Z,14.55
2022-08-03T04:09:14.269Z,14.55
2022-08-03T04:11:49.987Z,14.57
2022-08-03T04:14:24.158Z,14.70
2022-08-03T04:16:58.339Z,14.10
2022-08-03T04:19:36.915Z,12.48
2022-08-03T04:22:12.401Z,14.35
2022-08-03T04:24:50.784Z,15.30
2022-08-03T04:27:26.692Z,17.55
2022-08-03T04:29:58.758Z,11.38
2022-08-03T04:32:30.271Z,13.55
2022-08-03T04:34:59.404Z,14.68
2022-08-03T04:37:39.520Z,14.60
2022-08-03T04:40:15.609Z,12.93
2022-08-03T04:42:45.720Z,13.20
2022-08-03T04:45:17.144Z,15.52
2022-08-03T04:47:46.435Z,15.20
2022-08-03T04:50:19.505Z,13.77
2022-08-03T04:53:07.798Z,14.90
2022-08-03T04:55:37.786Z,14.23
2022-08-03T04:58:07.248Z,14.65
2022-08-03T05:00:37.423Z,15.38
2022-08-03T05:03:20.048Z,14.07
2022-08-03T05:06:10.040Z,11.23
2022-08-03T05:08:47.170Z,14.10
2022-08-03T05:11:19.655Z,14.43
2022-08-03T05:13:49.215Z,15.18
2022-08-03T05:16:18.049Z,13.70
2022-08-03T05:18:47.077Z,14.15
2022-08-03T05:21:16.911Z,12.43
2022-08-03T05:23:45.777Z,12.98
2022-08-03T05:26:14.615Z,14.10
2022-08-03T05:28:50.561Z,13.68
2022-08-03T05:31:20.756Z,15.88
2022-08-03T05:33:49.652Z,15.35
2022-08-03T05:36:18.300Z,14.50
2022-08-03T05:38:47.115Z,18.02
2022-08-03T05:41:22.229Z,19.20
2022-08-03T05:43:56.038Z,19.45
2022-08-03T05:46:24.893Z,14.32
2022-08-03T05:48:54.009Z,14.73
2022-08-03T05:51:22.735Z,15.02
2022-08-03T05:53:51.285Z,18.60
2022-08-03T05:56:25.160Z,18.60
2022-08-03T05:58:55.253Z,17.13
2022-08-03T06:01:24.153Z,13.07
2022-08-03T06:03:53.754Z,14.18
2022-08-03T06:06:23.099Z,13.07
2022-08-03T06:08:52.065Z,13.05
2022-08-03T06:11:20.596Z,19.95
2022-08-03T06:13:49.177Z,18.48
2022-08-03T06:16:19.289Z,19.88
2022-08-03T06:18:47.912Z,20.73
2022-08-03T06:21:17.130Z,19.67
2022-08-03T06:23:54.193Z,20.45
2022-08-03T06:26:28.911Z,17.45
2022-08-03T06:28:58.002Z,16.13
2022-08-03T06:31:33.334Z,16.85
2022-08-03T06:34:32.872Z,20.40
2022-08-03T06:37:01.769Z,24.25
2022-08-03T06:39:31.487Z,21.50
2022-08-03T06:42:00.175Z,19.92
2022-08-03T06:44:28.784Z,20.05
2022-08-03T06:46:58.994Z,23.20
2022-08-03T06:49:27.847Z,20.63
2022-08-03T06:52:04.538Z,20.85
2022-08-03T06:54:37.097Z,18.88
2022-08-03T06:57:08.359Z,20.80
2022-08-03T07:00:10.006Z,21.35
2022-08-03T07:02:28.218Z,20.55
2022-08-03T07:04:58.648Z,17.77
2022-08-03T07:07:27.366Z,18.33
2022-08-03T07:09:57.819Z,21.95
2022-08-03T07:12:29.455Z,16.95
2022-08-03T07:15:02.342Z,20.95
2022-08-03T07:17:36.774Z,15.02
2022-08-03T07:20:08.691Z,18.35
2022-08-03T07:22:37.955Z,15.10
2022-08-03T07:25:08.969Z,15.18
2022-08-03T07:27:38.474Z,17.83
2022-08-03T07:30:09.512Z,12.77
2022-08-03T07:32:49.744Z,17.52
2022-08-03T07:35:24.795Z,20.27
2022-08-03T07:37:55.136Z,20.30
2022-08-03T07:40:25.117Z,12.38
2022-08-03T07:43:02.402Z,14.20
2022-08-03T07:45:32.058Z,19.48
2022-08-03T07:48:02.278Z,12.43
2022-08-03T07:50:31.172Z,12.05
2022-08-03T07:52:59.907Z,12.77
2022-08-03T07:55:28.814Z,8.32
2022-08-03T07:58:07.657Z,12.70
2022-08-03T08:00:37.183Z,11.00
2022-08-03T08:03:07.185Z,13.27
2022-08-03T08:05:35.952Z,9.65
2022-08-03T08:08:05.887Z,7.60
2022-08-03T08:10:35.142Z,7.80
2022-08-03T08:13:04.182Z,6.60
2022-08-03T08:15:33.137Z,8.80
2022-08-03T08:18:03.491Z,5.30
2022-08-03T08:20:38.145Z,6.78
2022-08-03T08:23:42.884Z,5.00
2022-08-03T08:25:58.613Z,7.10
2022-08-03T08:28:32.907Z,6.60
2022-08-03T08:31:02.708Z,8.40
2022-08-03T08:33:48.326Z,8.45
2022-08-03T08:36:22.831Z,5.93
2022-08-03T08:38:51.816Z,4.45
2022-08-03T08:41:20.592Z,7.05
2022-08-03T08:43:49.241Z,7.55
2022-08-03T08:46:23.795Z,6.82
2022-08-03T08:48:55.368Z,7.28
2022-08-03T08:51:54.847Z,7.38
2022-08-03T08:54:24.835Z,7.05
2022-08-03T08:56:59.325Z,7.25
2022-08-03T08:59:48.346Z,8.55
2022-08-03T09:02:17.220Z,5.97
2022-08-03T09:04:48.836Z,8.73
2022-08-03T09:07:20.545Z,8.02
2022-08-03T09:10:11.368Z,7.47
2022-08-03T09:12:42.611Z,6.22
2022-08-03T09:15:24.550Z,6.28
2022-08-03T09:17:56.499Z,3.53
2022-08-03T09:20:28.671Z,4.85
2022-08-03T09:23:01.466Z,6.95
2022-08-03T09:25:33.560Z,6.22
2022-08-03T09:28:52.874Z,6.22
2022-08-03T09:31:03.156Z,4.78
2022-08-03T09:33:36.145Z,5.53
2022-08-03T09:36:05.668Z,6.15
2022-08-03T09:38:35.893Z,4.32
2022-08-03T09:41:18.248Z,5.28
2022-08-03T09:43:48.175Z,4.32
2022-08-03T09:46:16.869Z,4.47
2022-08-03T09:48:46.027Z,4.00
2022-08-03T09:52:31.285Z,3.83
2022-08-03T09:54:12.651Z,3.95
2022-08-03T09:56:47.670Z,3.83
2022-08-03T09:59:27.573Z,7.05
2022-08-03T10:01:58.095Z,4.00
2022-08-03T10:04:27.935Z,3.53
2022-08-03T10:07:06.493Z,5.53
2022-08-03T10:09:37.556Z,3.85
2022-08-03T10:12:11.375Z,3.35
2022-08-03T10:14:41.975Z,4.30
2022-08-03T10:17:11.244Z,4.20
2022-08-03T10:19:41.130Z,4.30
2022-08-03T10:22:15.065Z,5.25
2022-08-03T10:24:54.773Z,4.90
2022-08-03T10:27:25.480Z,4.43
2022-08-03T10:29:57.318Z,3.85
2022-08-03T10:32:32.669Z,4.15
2022-08-03T10:35:20.096Z,3.63
2022-08-03T10:37:57.302Z,4.60
2022-08-03T10:40:48.627Z,3.67
2022-08-03T10:43:23.018Z,4.07
2022-08-03T10:45:53.148Z,4.15
2022-08-03T10:48:23.211Z,3.47
2022-08-03T10:50:52.702Z,6.82
2022-08-03T10:53:37.462Z,5.15
2022-08-03T10:56:50.403Z,4.68
2022-08-03T10:59:27.704Z,4.80
2022-08-03T11:02:00.676Z,4.50
2022-08-03T11:04:30.878Z,4.95
2022-08-03T11:07:23.604Z,6.93
2022-08-03T11:09:54.851Z,5.38
2022-08-03T11:12:31.081Z,6.72
2022-08-03T11:15:03.235Z,6.78
2022-08-03T11:17:33.792Z,4.68
2022-08-03T11:20:15.899Z,5.53
2022-08-03T11:22:54.505Z,4.65
2022-08-03T11:25:54.403Z,4.57
2022-08-03T11:28:30.615Z,4.13
2022-08-03T11:31:50.392Z,3.95
2022-08-03T11:34:19.830Z,5.28
2022-08-03T11:37:29.929Z,4.35
2022-08-03T11:40:02.758Z,6.30
2022-08-03T11:42:47.054Z,6.75
2022-08-03T11:45:16.254Z,4.60
2022-08-03T11:47:51.092Z,5.60
2022-08-03T11:50:21.470Z,4.85
2022-08-03T11:52:51.777Z,5.10
2022-08-03T11:55:22.175Z,5.25
2022-08-03T11:59:10.904Z,6.88
2022-08-03T12:00:40.638Z,5.65
2022-08-03T12:03:16.294Z,5.00
2022-08-03T12:05:51.536Z,6.07
2022-08-03T12:08:34.072Z,5.43
2022-08-03T12:11:06.820Z,5.20
2022-08-03T12:14:44.209Z,4.90
2022-08-03T12:16:30.558Z,5.95
2022-08-03T12:19:03.157Z,6.40
2022-08-03T12:21:32.288Z,5.22
2022-08-03T12:24:03.454Z,5.05
2022-08-03T12:26:54.531Z,4.75
2022-08-03T12:29:29.200Z,4.53
2022-08-03T12:31:58.402Z,8.07
2022-08-03T12:34:47.619Z,7.97
2022-08-03T12:37:28.665Z,5.18
2022-08-03T12:40:09.763Z,5.50
2022-08-03T12:42:41.342Z,7.38
2022-08-03T12:45:24.647Z,4.90
2022-08-03T12:47:55.627Z,5.35
2022-08-03T12:50:34.302Z,4.78
2022-08-03T12:53:07.873Z,5.00
2022-08-03T12:55:57.954Z,5.13
2022-08-03T12:58:34.331Z,5.20
2022-08-03T13:01:10.102Z,5.00
2022-08-03T13:03:46.045Z,4.72
2022-08-03T13:06:23.770Z,6.57
2022-08-03T13:09:05.855Z,5.10
2022-08-03T13:11:55.479Z,4.70
2022-08-03T13:14:24.133Z,5.05
2022-08-03T13:16:52.795Z,5.20
2022-08-03T13:19:21.367Z,6.68
2022-08-03T13:21:53.689Z,6.95
2022-08-03T13:24:33.969Z,5.15
2022-08-03T13:28:01.908Z,7.32
2022-08-03T13:29:54.236Z,5.53
2022-08-03T13:32:24.235Z,4.82
2022-08-03T13:34:53.027Z,4.80
2022-08-03T13:37:23.512Z,5.43
2022-08-03T13:39:59.246Z,5.75
2022-08-03T13:42:31.580Z,5.47
2022-08-03T13:45:01.959Z,4.78
2022-08-03T13:47:30.912Z,5.30
2022-08-03T13:50:02.457Z,5.55
2022-08-03T13:52:36.450Z,5.40
2022-08-03T13:55:08.597Z,4.50
2022-08-03T13:58:04.906Z,4.88
2022-08-03T14:00:29.330Z,5.07
2022-08-03T14:03:06.514Z,5.20
2022-08-03T14:05:41.145Z,5.55
2022-08-03T14:08:11.880Z,5.40
2022-08-03T14:10:43.836Z,5.30
2022-08-03T14:13:17.698Z,5.63
2022-08-03T14:15:49.471Z,5.05
2022-08-03T14:18:28.492Z,5.43
2022-08-03T14:21:03.392Z,6.70
2022-08-03T14:23:37.728Z,5.47
2022-08-03T14:26:07.766Z,5.00
2022-08-03T14:28:37.194Z,8.65
2022-08-03T14:31:08.462Z,5.43
2022-08-03T14:33:55.166Z,5.47
2022-08-03T14:36:23.863Z,5.55
2022-08-03T14:38:56.119Z,5.32
2022-08-03T14:41:27.444Z,4.97
2022-08-03T14:44:02.132Z,5.85
2022-08-03T14:46:32.521Z,5.90
2022-08-03T14:50:30.564Z,5.68
2022-08-03T14:51:53.329Z,5.85
2022-08-03T14:54:24.178Z,6.95
2022-08-03T14:56:53.301Z,6.18
2022-08-03T14:59:21.887Z,5.63
2022-08-03T15:02:04.950Z,5.03
2022-08-03T15:04:35.882Z,7.38
2022-08-03T15:07:04.698Z,5.22
2022-08-03T15:09:35.554Z,5.00
2022-08-03T15:12:05.500Z,5.90
2022-08-03T15:14:34.952Z,5.70
2022-08-03T15:17:06.996Z,6.72
2022-08-03T15:20:00.847Z,6.00
2022-08-03T15:22:25.008Z,6.07
2022-08-03T15:24:56.294Z,6.35
2022-08-03T15:27:24.999Z,5.80
2022-08-03T15:30:04.859Z,5.43
2022-08-03T15:32:38.384Z,5.38
2022-08-03T15:35:07.794Z,4.75
2022-08-03T15:37:36.456Z,5.45
2022-08-03T15:40:08.106Z,6.22
2022-08-03T15:42:36.866Z,7.68
2022-08-03T15:45:06.442Z,5.35
2022-08-03T15:47:35.043Z,7.13
2022-08-03T15:50:09.472Z,5.68
2022-08-03T15:52:38.485Z,5.03
2022-08-03T15:55:10.615Z,4.85
2022-08-03T15:59:11.070Z,5.20
2022-08-03T16:00:34.023Z,5.75
2022-08-03T16:03:02.899Z,6.65
2022-08-03T16:05:31.637Z,4.63
2022-08-03T16:08:04.082Z,5.80
2022-08-03T16:10:35.561Z,5.43
2022-08-03T16:13:04.420Z,5.80
2022-08-03T16:15:33.301Z,5.18
2022-08-03T16:18:07.607Z,5.63
2022-08-03T16:20:36.230Z,5.20
2022-08-03T16:23:11.427Z,5.57
2022-08-03T16:25:44.485Z,5.43
2022-08-03T16:28:18.913Z,5.30
2022-08-03T16:30:48.342Z,5.90
2022-08-03T16:33:18.098Z,5.80
2022-08-03T16:35:49.627Z,5.78
2022-08-03T16:38:19.554Z,5.95
2022-08-03T16:40:51.965Z,5.25
2022-08-03T16:43:23.147Z,5.80
2022-08-03T16:45:52.801Z,5.00
2022-08-03T16:48:21.915Z,5.70
2022-08-03T16:50:50.587Z,5.35
2022-08-03T16:53:33.721Z,5.88
2022-08-03T16:56:10.865Z,5.30
2022-08-03T16:58:42.314Z,5.70
2022-08-03T17:01:22.477Z,5.32
2022-08-03T17:04:01.532Z,5.80
2022-08-03T17:06:34.125Z,5.03
2022-08-03T17:09:08.699Z,5.30
2022-08-03T17:11:44.117Z,5.43
2022-08-03T17:14:21.781Z,6.15
2022-08-03T17:16:54.540Z,5.90
2022-08-03T17:19:26.363Z,6.05
2022-08-03T17:22:04.116Z,5.38
2022-08-03T17:24:41.016Z,5.82
2022-08-03T17:28:41.354Z,5.88
2022-08-03T17:30:12.029Z,6.05
2022-08-03T17:32:56.545Z,7.20
2022-08-03T17:35:34.684Z,5.70
2022-08-03T17:38:11.975Z,5.72
2022-08-03T17:40:43.099Z,6.18
2022-08-03T17:44:13.678Z,6.25
2022-08-03T17:46:10.978Z,5.70
2022-08-03T17:48:42.256Z,5.93
2022-08-03T17:51:17.953Z,5.53
2022-08-03T17:54:05.203Z,6.07
2022-08-03T17:56:58.245Z,5.78
2022-08-03T17:59:51.890Z,6.00
2022-08-03T18:02:54.868Z,7.60
2022-08-03T18:06:12.713Z,5.68
2022-08-03T18:08:26.857Z,6.00
2022-08-03T18:11:15.115Z,6.20
2022-08-03T18:13:58.183Z,6.65
2022-08-03T18:16:35.292Z,6.20
2022-08-03T18:19:13.477Z,6.78
2022-08-03T18:22:02.844Z,6.88
2022-08-03T18:24:33.213Z,6.30
2022-08-03T18:27:03.301Z,6.88
2022-08-03T18:29:33.291Z,7.00
2022-08-03T18:32:13.550Z,8.68
2022-08-03T18:34:53.188Z,7.68
2022-08-03T18:37:26.211Z,7.82
2022-08-03T18:39:58.498Z,8.27
2022-08-03T18:42:28.854Z,7.53
2022-08-03T18:45:15.010Z,7.20
2022-08-03T18:48:06.152Z,7.47
2022-08-03T18:50:49.745Z,7.07
2022-08-03T18:54:03.049Z,7.18
2022-08-03T18:56:32.478Z,8.30
2022-08-03T18:59:10.859Z,6.72
2022-08-03T19:01:58.026Z,8.05
2022-08-03T19:04:35.420Z,8.20
2022-08-03T19:07:08.547Z,7.43
2022-08-03T19:09:48.152Z,7.72
2022-08-03T19:12:30.789Z,7.38
2022-08-03T19:15:12.780Z,7.45
2022-08-03T19:17:52.730Z,6.90
2022-08-03T19:20:26.517Z,6.97
2022-08-03T19:23:00.411Z,8.57
2022-08-03T19:25:35.124Z,8.65
2022-08-03T19:28:07.220Z,9.32
2022-08-03T19:30:39.889Z,8.82
2022-08-03T19:33:11.458Z,8.43
2022-08-03T19:35:51.806Z,8.25
2022-08-03T19:38:27.543Z,8.52
2022-08-03T19:41:03.244Z,9.48
2022-08-03T19:43:49.499Z,9.70
2022-08-03T19:46:30.505Z,9.60
2022-08-03T19:49:14.595Z,9.07
2022-08-03T19:52:01.483Z,9.80
2022-08-03T19:54:52.817Z,10.50
2022-08-03T19:57:25.765Z,10.55
2022-08-03T19:59:56.772Z,9.60
2022-08-03T20:02:29.705Z,9.98
2022-08-03T20:04:59.988Z,9.27
2022-08-03T20:07:33.005Z,10.05
2022-08-03T20:10:05.321Z,9.23
2022-08-03T20:12:39.243Z,9.27
2022-08-03T20:15:10.632Z,9.93
2022-08-03T20:17:55.343Z,9.52
2022-08-03T20:20:29.857Z,9.32
2022-08-03T20:23:04.035Z,8.93
2022-08-03T20:25:48.787Z,10.02
2022-08-03T20:28:36.171Z,8.98
2022-08-03T20:31:32.602Z,11.48
2022-08-03T20:34:06.312Z,10.10
2022-08-03T20:36:35.060Z,11.32
2022-08-03T20:39:07.540Z,10.02
2022-08-03T20:41:37.044Z,9.10
2022-08-03T20:44:07.077Z,9.23
2022-08-03T20:46:46.714Z,9.48
2022-08-03T20:49:25.313Z,11.20
2022-08-03T20:51:55.320Z,9.80
2022-08-03T20:54:29.469Z,10.82
2022-08-03T20:57:04.174Z,9.88
2022-08-03T20:59:47.671Z,12.65
2022-08-03T21:02:29.117Z,10.20
2022-08-03T21:05:03.424Z,9.85
2022-08-03T21:08:03.703Z,10.05
2022-08-03T21:10:38.242Z,10.75
2022-08-03T21:13:18.550Z,10.45
2022-08-03T21:16:11.893Z,11.80
2022-08-03T21:18:47.209Z,10.45
2022-08-03T21:21:20.013Z,11.07
2022-08-03T21:23:53.858Z,11.43
2022-08-03T21:26:28.556Z,11.32
2022-08-03T21:28:58.522Z,11.75
2022-08-03T21:31:28.094Z,12.05
2022-08-03T21:33:59.487Z,12.13
2022-08-03T21:36:32.167Z,12.18
2022-08-03T21:39:01.964Z,12.00
2022-08-03T21:41:33.663Z,11.88
2022-08-03T21:44:05.152Z,12.10
2022-08-03T21:46:39.313Z,13.20
2022-08-03T21:50:07.621Z,12.20
2022-08-03T21:52:06.759Z,12.43
2022-08-03T21:54:38.550Z,12.35
2022-08-03T21:57:20.024Z,13.07
2022-08-03T21:59:56.652Z,12.70
2022-08-03T22:02:31.518Z,12.13
2022-08-03T22:05:05.152Z,12.55
2022-08-03T22:07:35.943Z,12.20
2022-08-03T22:10:07.727Z,12.40
2022-08-03T22:12:38.678Z,11.63
2022-08-03T22:15:11.713Z,12.50
2022-08-03T22:17:53.655Z,11.02
2022-08-03T22:20:24.926Z,11.32
2022-08-03T22:22:57.711Z,11.07
2022-08-03T22:25:31.572Z,14.27
2022-08-03T22:28:05.162Z,11.32
2022-08-03T22:30:34.613Z,10.38
2022-08-03T22:33:11.723Z,9.35
2022-08-03T22:35:47.828Z,9.88
2022-08-03T22:38:18.733Z,9.82
2022-08-03T22:40:51.157Z,11.10
2022-08-03T22:43:25.683Z,9.43
2022-08-03T22:46:10.239Z,8.70
2022-08-03T22:48:41.955Z,8.75
2022-08-03T22:51:11.489Z,10.38
2022-08-03T22:53:41.562Z,8.82
2022-08-03T22:56:11.027Z,8.63
2022-08-03T22:58:40.970Z,8.23
2022-08-03T23:01:13.714Z,8.32
2022-08-03T23:03:58.693Z,8.40
2022-08-03T23:06:36.558Z,8.43
2022-08-03T23:09:09.303Z,8.45
2022-08-03T23:11:45.533Z,10.43
2022-08-03T23:14:20.409Z,8.05
2022-08-03T23:16:51.989Z,8.32
2022-08-03T23:19:25.133Z,8.90
2022-08-03T23:22:02.400Z,8.02
2022-08-03T23:24:36.892Z,9.50
2022-08-03T23:27:08.263Z,9.55
2022-08-03T23:29:43.282Z,9.25
2022-08-03T23:32:13.997Z,8.85
2022-08-03T23:35:06.091Z,10.27
2022-08-03T23:38:12.177Z,8.95
2022-08-03T23:40:30.979Z,9.73
2022-08-03T23:43:02.169Z,9.02
2022-08-03T23:45:37.530Z,8.98
2022-08-03T23:48:06.996Z,9.23
2022-08-03T23:50:45.727Z,10.00
2022-08-03T23:53:22.657Z,9.15
2022-08-03T23:56:13.949Z,9.45
2022-08-03T23:58:57.916Z,9.73
